Terminal Aerodrome Forecast
Issued by NWS

Current Version | Previous Version | Graphics & Text | Print | Product List | Glossary On
Versions: 1 2 3 4 5 6 7 8 9 10 11 12 13 14 15 16
000
FTUS41 KRNK 140542 CCA
TAFLWB
TAF COR
KLWB 140542Z 1406/1506 26010G20KT P6SM VCSH OVC040
     FM140800 27014G26KT P6SM BKN025
      TEMPO 1408/1412 3SM -SHSN
     FM141800 30009KT P6SM BKN030
     FM142200 30006KT P6SM BKN045
     FM150200 00000KT P6SM BKN200=

USA.gov is the U.S. government's official web portal to all federal, state and local government web resources and services.